Terminal Aerodrome Forecast
Issued by NWS

Home | Current Version | Previous Version | Text Only | Print | Product List | Glossary On
Versions: 1 2 3 4 5 6 7 8 9 10 11 12 13 14 15 16 17 18 19 20 21 22 23 24 25 26 27 28 29 30 31 32
000
FTUS41 KCTP 222339
TAFBFD
TAF
KBFD 222339Z 2300/2324 09005KT P6SM OVC070
     FM230300 11006KT 5SM BR BKN025 OVC040
     FM230700 11010G15KT 3SM BR VCSH OVC007
     FM231400 11012G20KT 3SM -RA BR OVC004
     FM231700 08012G20KT 2SM -RASN OVC004
     FM232300 08014G24KT 1SM -SNRA OVC002=

USA.gov is the U.S. government's official web portal to all federal, state and local government web resources and services.